Decoded Metar for LFMC (LE LUC in FRANCE) (IATA:N/A) | Meteo·Mobile Aviation Weather
aviador You're here:

LFMC Decoded Metar

LE LUC in FRANCE
Report Time2020-02-22 22:30:00
UTC Time2020-02-22 23:04:01
Flight Rules vfr VFR
WindVRB at 02 kt
Visibility9999 m
Phenomena:N/A
Clouds:N/A
Expected CloudBase > 800 ft AGL from Temp-Dew spread
CeilingNone
Temp09°C (ISA -5)
Dew Point07°C (87% RH)
AAT7.6°C
QNH1032 hPa
Density Alt-906 ft
Elevation256 ft
Report Wrong Elevation
Raw Report
METAR LFMC 222230Z AUTO VRB02KT 9999 ////// 09/07 Q1032=

Extra information for LFMC:More info

Metar Taf Metar & Taf Last 4 Metars F.Rules Stats Wind Profile Meteogram Temp Stats Airport Information Weather charts Add Link Nearby VenuesMetar ALERT Operation Metar Decoded Social comments